sensor_id;sensor_type;location;lat;lon;timestamp;P1;durP1;ratioP1;P2;durP2;ratioP2
46042;SDS011;32533;-33.854;18.542;2022-09-16T00:01:15;16.63;;;9.13;;
46042;SDS011;32533;-33.854;18.542;2022-09-16T00:03:42;14.77;;;8.60;;
46042;SDS011;32533;-33.854;18.542;2022-09-16T00:06:17;14.75;;;7.93;;
46042;SDS011;32533;-33.854;18.542;2022-09-16T00:08:45;15.27;;;8.63;;
46042;SDS011;32533;-33.854;18.542;2022-09-16T00:11:13;17.27;;;8.43;;
46042;SDS011;32533;-33.854;18.542;2022-09-16T00:13:40;13.75;;;8.27;;
46042;SDS011;32533;-33.854;18.542;2022-09-16T00:16:07;12.70;;;7.68;;
46042;SDS011;32533;-33.854;18.542;2022-09-16T00:18:36;10.77;;;7.03;;
46042;SDS011;32533;-33.854;18.542;2022-09-16T00:21:05;10.70;;;6.65;;
46042;SDS011;32533;-33.854;18.542;2022-09-16T00:23:33;9.00;;;5.32;;
46042;SDS011;32533;-33.854;18.542;2022-09-16T00:26:00;10.40;;;6.60;;
46042;SDS011;32533;-33.854;18.542;2022-09-16T00:28:26;9.68;;;6.20;;
46042;SDS011;32533;-33.854;18.542;2022-09-16T00:30:53;15.45;;;7.05;;
46042;SDS011;32533;-33.854;18.542;2022-09-16T00:33:23;13.35;;;8.10;;
46042;SDS011;32533;-33.854;18.542;2022-09-16T00:35:50;12.18;;;8.05;;
46042;SDS011;32533;-33.854;18.542;2022-09-16T00:38:16;11.77;;;6.88;;
46042;SDS011;32533;-33.854;18.542;2022-09-16T00:40:47;15.57;;;8.50;;
46042;SDS011;32533;-33.854;18.542;2022-09-16T00:43:17;13.05;;;7.25;;
46042;SDS011;32533;-33.854;18.542;2022-09-16T00:45:45;14.52;;;6.57;;
46042;SDS011;32533;-33.854;18.542;2022-09-16T00:48:20;12.23;;;7.18;;
46042;SDS011;32533;-33.854;18.542;2022-09-16T00:50:51;11.50;;;7.13;;
46042;SDS011;32533;-33.854;18.542;2022-09-16T00:53:59;14.48;;;6.28;;
46042;SDS011;32533;-33.854;18.542;2022-09-16T00:56:21;10.50;;;5.28;;
46042;SDS011;32533;-33.854;18.542;2022-09-16T00:58:55;13.43;;;7.40;;
46042;SDS011;32533;-33.854;18.542;2022-09-16T01:01:28;10.63;;;6.72;;
46042;SDS011;32533;-33.854;18.542;2022-09-16T01:03:56;10.45;;;6.93;;
46042;SDS011;32533;-33.854;18.542;2022-09-16T01:06:26;9.43;;;6.68;;
46042;SDS011;32533;-33.854;18.542;2022-09-16T01:08:54;11.77;;;6.35;;
46042;SDS011;32533;-33.854;18.542;2022-09-16T01:11:22;9.15;;;5.72;;
46042;SDS011;32533;-33.854;18.542;2022-09-16T01:13:49;11.32;;;6.55;;
46042;SDS011;32533;-33.854;18.542;2022-09-16T01:16:25;10.13;;;6.25;;
46042;SDS011;32533;-33.854;18.542;2022-09-16T01:19:12;10.65;;;6.47;;
46042;SDS011;32533;-33.854;18.542;2022-09-16T01:30:02;10.13;;;5.88;;
46042;SDS011;32533;-33.854;18.542;2022-09-16T01:51:59;16.05;;;6.57;;
46042;SDS011;32533;-33.854;18.542;2022-09-16T01:54:41;11.65;;;6.22;;
46042;SDS011;32533;-33.854;18.542;2022-09-16T02:00:06;9.35;;;5.55;;
46042;SDS011;32533;-33.854;18.542;2022-09-16T04:14:59;11.00;;;8.93;;
46042;SDS011;32533;-33.854;18.542;2022-09-16T04:17:26;8.13;;;7.30;;
46042;SDS011;32533;-33.854;18.542;2022-09-16T04:19:55;49.53;;;36.55;;
46042;SDS011;32533;-33.854;18.542;2022-09-16T04:22:22;34.38;;;26.98;;
46042;SDS011;32533;-33.854;18.542;2022-09-16T04:24:49;17.48;;;14.82;;
46042;SDS011;32533;-33.854;18.542;2022-09-16T04:27:15;10.07;;;9.07;;
46042;SDS011;32533;-33.854;18.542;2022-09-16T04:29:41;8.63;;;7.05;;
46042;SDS011;32533;-33.854;18.542;2022-09-16T04:32:08;6.80;;;6.10;;
46042;SDS011;32533;-33.854;18.542;2022-09-16T04:34:35;6.88;;;5.47;;
46042;SDS011;32533;-33.854;18.542;2022-09-16T04:37:01;6.55;;;5.95;;
46042;SDS011;32533;-33.854;18.542;2022-09-16T04:39:28;6.88;;;6.07;;
46042;SDS011;32533;-33.854;18.542;2022-09-16T04:41:54;6.55;;;5.45;;
46042;SDS011;32533;-33.854;18.542;2022-09-16T04:44:21;8.38;;;5.53;;
46042;SDS011;32533;-33.854;18.542;2022-09-16T04:46:47;6.82;;;5.70;;
46042;SDS011;32533;-33.854;18.542;2022-09-16T04:49:14;6.07;;;5.47;;
46042;SDS011;32533;-33.854;18.542;2022-09-16T04:51:40;8.20;;;6.05;;
46042;SDS011;32533;-33.854;18.542;2022-09-16T04:54:07;7.60;;;5.80;;
46042;SDS011;32533;-33.854;18.542;2022-09-16T04:56:33;6.95;;;6.13;;
46042;SDS011;32533;-33.854;18.542;2022-09-16T04:59:01;6.78;;;6.18;;
46042;SDS011;32533;-33.854;18.542;2022-09-16T05:01:29;9.85;;;7.18;;
46042;SDS011;32533;-33.854;18.542;2022-09-16T05:04:00;8.45;;;7.32;;
46042;SDS011;32533;-33.854;18.542;2022-09-16T05:06:29;10.38;;;8.15;;
46042;SDS011;32533;-33.854;18.542;2022-09-16T05:08:57;11.70;;;7.60;;
46042;SDS011;32533;-33.854;18.542;2022-09-16T05:11:28;8.68;;;7.18;;
46042;SDS011;32533;-33.854;18.542;2022-09-16T05:13:59;9.43;;;8.05;;
46042;SDS011;32533;-33.854;18.542;2022-09-16T05:16:27;10.50;;;8.20;;
46042;SDS011;32533;-33.854;18.542;2022-09-16T05:18:58;9.60;;;8.57;;
46042;SDS011;32533;-33.854;18.542;2022-09-16T05:21:26;10.98;;;7.82;;
46042;SDS011;32533;-33.854;18.542;2022-09-16T05:23:53;12.88;;;7.45;;
46042;SDS011;32533;-33.854;18.542;2022-09-16T05:26:24;10.50;;;7.50;;
46042;SDS011;32533;-33.854;18.542;2022-09-16T05:28:52;10.18;;;7.90;;
46042;SDS011;32533;-33.854;18.542;2022-09-16T05:31:20;13.90;;;8.38;;
46042;SDS011;32533;-33.854;18.542;2022-09-16T05:33:55;11.95;;;7.13;;
46042;SDS011;32533;-33.854;18.542;2022-09-16T05:36:35;9.43;;;6.97;;
46042;SDS011;32533;-33.854;18.542;2022-09-16T05:39:06;11.82;;;7.10;;
46042;SDS011;32533;-33.854;18.542;2022-09-16T05:41:32;7.47;;;5.90;;
46042;SDS011;32533;-33.854;18.542;2022-09-16T05:43:59;12.50;;;6.50;;
46042;SDS011;32533;-33.854;18.542;2022-09-16T05:46:26;10.40;;;5.85;;
46042;SDS011;32533;-33.854;18.542;2022-09-16T05:48:53;11.15;;;6.65;;
46042;SDS011;32533;-33.854;18.542;2022-09-16T05:51:21;9.43;;;6.70;;
46042;SDS011;32533;-33.854;18.542;2022-09-16T05:53:49;9.15;;;8.05;;
46042;SDS011;32533;-33.854;18.542;2022-09-16T05:56:17;11.48;;;7.70;;
46042;SDS011;32533;-33.854;18.542;2022-09-16T05:58:46;11.63;;;8.32;;
46042;SDS011;32533;-33.854;18.542;2022-09-16T06:01:16;15.90;;;8.95;;
46042;SDS011;32533;-33.854;18.542;2022-09-16T06:03:45;13.82;;;8.25;;
46042;SDS011;32533;-33.854;18.542;2022-09-16T06:06:23;14.70;;;9.82;;
46042;SDS011;32533;-33.854;18.542;2022-09-16T06:08:57;16.35;;;9.38;;
46042;SDS011;32533;-33.854;18.542;2022-09-16T06:11:26;13.98;;;9.88;;
46042;SDS011;32533;-33.854;18.542;2022-09-16T06:13:57;14.30;;;9.68;;
46042;SDS011;32533;-33.854;18.542;2022-09-16T06:16:26;15.55;;;9.93;;
46042;SDS011;32533;-33.854;18.542;2022-09-16T06:18:56;14.70;;;10.68;;
46042;SDS011;32533;-33.854;18.542;2022-09-16T06:21:23;17.23;;;10.75;;
46042;SDS011;32533;-33.854;18.542;2022-09-16T06:23:50;15.57;;;11.18;;
46042;SDS011;32533;-33.854;18.542;2022-09-16T06:26:19;13.00;;;10.20;;
46042;SDS011;32533;-33.854;18.542;2022-09-16T06:28:47;14.38;;;10.05;;
46042;SDS011;32533;-33.854;18.542;2022-09-16T06:31:15;11.70;;;9.88;;
46042;SDS011;32533;-33.854;18.542;2022-09-16T06:33:43;18.48;;;10.93;;
46042;SDS011;32533;-33.854;18.542;2022-09-16T06:36:12;14.63;;;9.93;;
46042;SDS011;32533;-33.854;18.542;2022-09-16T06:38:41;11.38;;;8.45;;
46042;SDS011;32533;-33.854;18.542;2022-09-16T06:41:08;13.60;;;7.90;;
46042;SDS011;32533;-33.854;18.542;2022-09-16T06:43:36;14.48;;;8.93;;
46042;SDS011;32533;-33.854;18.542;2022-09-16T06:46:04;20.70;;;8.23;;
46042;SDS011;32533;-33.854;18.542;2022-09-16T06:48:34;10.68;;;8.05;;
46042;SDS011;32533;-33.854;18.542;2022-09-16T06:51:04;17.25;;;8.48;;
46042;SDS011;32533;-33.854;18.542;2022-09-16T06:53:41;11.77;;;8.20;;
46042;SDS011;32533;-33.854;18.542;2022-09-16T06:56:09;17.63;;;9.15;;
46042;SDS011;32533;-33.854;18.542;2022-09-16T06:58:38;25.73;;;10.07;;
46042;SDS011;32533;-33.854;18.542;2022-09-16T07:03:37;14.50;;;8.27;;
46042;SDS011;32533;-33.854;18.542;2022-09-16T07:06:05;15.23;;;8.10;;
46042;SDS011;32533;-33.854;18.542;2022-09-16T07:08:33;12.15;;;7.10;;
46042;SDS011;32533;-33.854;18.542;2022-09-16T07:11:02;12.25;;;7.75;;
46042;SDS011;32533;-33.854;18.542;2022-09-16T07:13:30;11.82;;;8.63;;
46042;SDS011;32533;-33.854;18.542;2022-09-16T07:16:04;13.77;;;8.13;;
46042;SDS011;32533;-33.854;18.542;2022-09-16T07:21:00;14.38;;;7.65;;
46042;SDS011;32533;-33.854;18.542;2022-09-16T07:23:31;7.75;;;5.85;;
46042;SDS011;32533;-33.854;18.542;2022-09-16T07:26:00;10.30;;;6.28;;
46042;SDS011;32533;-33.854;18.542;2022-09-16T07:28:31;15.02;;;6.55;;
46042;SDS011;32533;-33.854;18.542;2022-09-16T07:31:01;15.95;;;7.43;;
46042;SDS011;32533;-33.854;18.542;2022-09-16T07:33:29;12.98;;;7.75;;
46042;SDS011;32533;-33.854;18.542;2022-09-16T07:36:00;9.27;;;5.13;;
46042;SDS011;32533;-33.854;18.542;2022-09-16T07:38:28;17.55;;;5.78;;
46042;SDS011;32533;-33.854;18.542;2022-09-16T07:43:30;14.57;;;5.57;;
46042;SDS011;32533;-33.854;18.542;2022-09-16T07:45:57;12.98;;;5.18;;
46042;SDS011;32533;-33.854;18.542;2022-09-16T07:48:24;11.55;;;5.95;;
46042;SDS011;32533;-33.854;18.542;2022-09-16T07:50:53;17.98;;;6.03;;
46042;SDS011;32533;-33.854;18.542;2022-09-16T07:53:21;10.07;;;5.55;;
46042;SDS011;32533;-33.854;18.542;2022-09-16T07:55:48;9.35;;;5.60;;
46042;SDS011;32533;-33.854;18.542;2022-09-16T07:58:14;8.27;;;5.78;;
46042;SDS011;32533;-33.854;18.542;2022-09-16T08:00:45;11.32;;;6.72;;
46042;SDS011;32533;-33.854;18.542;2022-09-16T08:03:12;13.63;;;6.90;;
46042;SDS011;32533;-33.854;18.542;2022-09-16T08:05:39;11.48;;;6.25;;
46042;SDS011;32533;-33.854;18.542;2022-09-16T08:08:06;16.45;;;5.30;;
46042;SDS011;32533;-33.854;18.542;2022-09-16T08:10:33;17.65;;;7.50;;
46042;SDS011;32533;-33.854;18.542;2022-09-16T08:13:02;18.25;;;7.25;;
46042;SDS011;32533;-33.854;18.542;2022-09-16T08:15:29;15.50;;;6.95;;
46042;SDS011;32533;-33.854;18.542;2022-09-16T08:17:55;11.13;;;5.05;;
46042;SDS011;32533;-33.854;18.542;2022-09-16T08:20:22;6.10;;;4.43;;
46042;SDS011;32533;-33.854;18.542;2022-09-16T08:22:50;19.63;;;4.90;;
46042;SDS011;32533;-33.854;18.542;2022-09-16T08:25:17;16.40;;;3.92;;
46042;SDS011;32533;-33.854;18.542;2022-09-16T08:27:44;5.68;;;3.15;;
46042;SDS011;32533;-33.854;18.542;2022-09-16T08:30:10;6.60;;;3.35;;
46042;SDS011;32533;-33.854;18.542;2022-09-16T08:32:37;9.18;;;3.15;;
46042;SDS011;32533;-33.854;18.542;2022-09-16T08:35:03;7.65;;;2.30;;
46042;SDS011;32533;-33.854;18.542;2022-09-16T08:37:30;4.53;;;2.22;;
46042;SDS011;32533;-33.854;18.542;2022-09-16T08:39:59;4.70;;;1.90;;
46042;SDS011;32533;-33.854;18.542;2022-09-16T08:42:30;3.30;;;2.65;;
46042;SDS011;32533;-33.854;18.542;2022-09-16T08:48:25;8.73;;;2.70;;
46042;SDS011;32533;-33.854;18.542;2022-09-16T08:51:11;5.30;;;2.30;;
46042;SDS011;32533;-33.854;18.542;2022-09-16T08:56:15;2.50;;;1.38;;
46042;SDS011;32533;-33.854;18.542;2022-09-16T08:58:45;2.50;;;1.35;;
46042;SDS011;32533;-33.854;18.542;2022-09-16T09:01:17;6.63;;;1.55;;
46042;SDS011;32533;-33.854;18.542;2022-09-16T09:03:51;2.78;;;1.52;;
46042;SDS011;32533;-33.854;18.542;2022-09-16T09:22:56;3.70;;;1.20;;
46042;SDS011;32533;-33.854;18.542;2022-09-16T09:28:34;12.13;;;2.72;;
46042;SDS011;32533;-33.854;18.542;2022-09-16T09:31:11;6.63;;;1.52;;
46042;SDS011;32533;-33.854;18.542;2022-09-16T09:34:08;13.30;;;1.63;;
46042;SDS011;32533;-33.854;18.542;2022-09-16T09:42:52;3.65;;;0.90;;
46042;SDS011;32533;-33.854;18.542;2022-09-16T09:48:26;5.88;;;0.88;;
46042;SDS011;32533;-33.854;18.542;2022-09-16T09:51:00;2.80;;;1.17;;
46042;SDS011;32533;-33.854;18.542;2022-09-16T09:53:52;1.38;;;1.02;;
46042;SDS011;32533;-33.854;18.542;2022-09-16T09:56:26;0.95;;;0.70;;
46042;SDS011;32533;-33.854;18.542;2022-09-16T10:01:29;1.77;;;0.77;;
46042;SDS011;32533;-33.854;18.542;2022-09-16T10:03:55;1.85;;;0.68;;
46042;SDS011;32533;-33.854;18.542;2022-09-16T12:58:50;3.97;;;1.30;;
46042;SDS011;32533;-33.854;18.542;2022-09-16T13:01:41;5.70;;;1.63;;
46042;SDS011;32533;-33.854;18.542;2022-09-16T13:06:48;4.60;;;1.83;;
46042;SDS011;32533;-33.854;18.542;2022-09-16T13:11:55;6.60;;;1.40;;
46042;SDS011;32533;-33.854;18.542;2022-09-16T13:14:29;4.97;;;1.30;;
46042;SDS011;32533;-33.854;18.542;2022-09-16T13:16:59;1.58;;;0.73;;
46042;SDS011;32533;-33.854;18.542;2022-09-16T13:19:33;3.05;;;1.05;;
46042;SDS011;32533;-33.854;18.542;2022-09-16T13:22:21;3.40;;;1.25;;
46042;SDS011;32533;-33.854;18.542;2022-09-16T13:25:29;4.88;;;0.90;;
46042;SDS011;32533;-33.854;18.542;2022-09-16T13:30:52;3.80;;;0.70;;
46042;SDS011;32533;-33.854;18.542;2022-09-16T13:33:24;2.85;;;0.80;;
46042;SDS011;32533;-33.854;18.542;2022-09-16T13:36:53;1.98;;;0.90;;
46042;SDS011;32533;-33.854;18.542;2022-09-16T13:41:37;3.55;;;0.63;;
46042;SDS011;32533;-33.854;18.542;2022-09-16T13:52:29;1.45;;;0.90;;
46042;SDS011;32533;-33.854;18.542;2022-09-16T13:54:58;1.52;;;0.98;;
46042;SDS011;32533;-33.854;18.542;2022-09-16T14:00:20;4.07;;;1.00;;
46042;SDS011;32533;-33.854;18.542;2022-09-16T14:03:10;4.18;;;1.70;;
46042;SDS011;32533;-33.854;18.542;2022-09-16T14:06:01;4.72;;;1.10;;
46042;SDS011;32533;-33.854;18.542;2022-09-16T14:08:36;2.25;;;1.10;;
46042;SDS011;32533;-33.854;18.542;2022-09-16T14:11:17;4.15;;;0.93;;
46042;SDS011;32533;-33.854;18.542;2022-09-16T14:14:02;4.82;;;0.98;;
46042;SDS011;32533;-33.854;18.542;2022-09-16T14:16:39;4.10;;;0.82;;
46042;SDS011;32533;-33.854;18.542;2022-09-16T14:21:39;2.80;;;0.98;;
46042;SDS011;32533;-33.854;18.542;2022-09-16T14:24:07;4.38;;;1.15;;
46042;SDS011;32533;-33.854;18.542;2022-09-16T14:26:54;2.90;;;0.80;;
46042;SDS011;32533;-33.854;18.542;2022-09-16T14:29:22;3.90;;;1.48;;
46042;SDS011;32533;-33.854;18.542;2022-09-16T14:31:53;2.33;;;0.82;;
46042;SDS011;32533;-33.854;18.542;2022-09-16T14:36:56;11.45;;;1.90;;
46042;SDS011;32533;-33.854;18.542;2022-09-16T14:39:22;3.40;;;1.52;;
46042;SDS011;32533;-33.854;18.542;2022-09-16T14:41:52;3.20;;;1.65;;
46042;SDS011;32533;-33.854;18.542;2022-09-16T14:49:22;5.82;;;2.78;;
46042;SDS011;32533;-33.854;18.542;2022-09-16T14:52:33;3.47;;;1.20;;
46042;SDS011;32533;-33.854;18.542;2022-09-16T14:54:48;2.85;;;1.23;;
46042;SDS011;32533;-33.854;18.542;2022-09-16T14:57:20;2.50;;;0.90;;
46042;SDS011;32533;-33.854;18.542;2022-09-16T14:59:52;2.85;;;0.68;;
46042;SDS011;32533;-33.854;18.542;2022-09-16T15:02:23;4.93;;;0.95;;
46042;SDS011;32533;-33.854;18.542;2022-09-16T15:07:53;3.40;;;1.58;;
46042;SDS011;32533;-33.854;18.542;2022-09-16T15:10:31;6.03;;;1.15;;
46042;SDS011;32533;-33.854;18.542;2022-09-16T15:12:58;4.60;;;1.60;;
46042;SDS011;32533;-33.854;18.542;2022-09-16T15:15:36;2.67;;;1.40;;
46042;SDS011;32533;-33.854;18.542;2022-09-16T15:18:21;3.53;;;1.40;;
46042;SDS011;32533;-33.854;18.542;2022-09-16T15:21:05;3.10;;;1.70;;
46042;SDS011;32533;-33.854;18.542;2022-09-16T15:23:47;8.43;;;2.30;;
46042;SDS011;32533;-33.854;18.542;2022-09-16T15:26:20;7.15;;;2.45;;
46042;SDS011;32533;-33.854;18.542;2022-09-16T15:29:12;7.22;;;1.92;;
46042;SDS011;32533;-33.854;18.542;2022-09-16T15:31:42;1.85;;;1.05;;
46042;SDS011;32533;-33.854;18.542;2022-09-16T15:36:45;2.17;;;1.10;;
46042;SDS011;32533;-33.854;18.542;2022-09-16T15:39:25;4.60;;;1.23;;
46042;SDS011;32533;-33.854;18.542;2022-09-16T15:42:08;5.38;;;1.40;;
46042;SDS011;32533;-33.854;18.542;2022-09-16T15:44:51;4.30;;;1.83;;
46042;SDS011;32533;-33.854;18.542;2022-09-16T15:48:01;5.90;;;1.50;;
46042;SDS011;32533;-33.854;18.542;2022-09-16T15:50:17;3.85;;;1.48;;
46042;SDS011;32533;-33.854;18.542;2022-09-16T15:52:53;2.72;;;1.35;;
46042;SDS011;32533;-33.854;18.542;2022-09-16T15:58:08;4.60;;;2.08;;
46042;SDS011;32533;-33.854;18.542;2022-09-16T16:00:56;7.10;;;2.28;;
46042;SDS011;32533;-33.854;18.542;2022-09-16T16:03:28;10.77;;;2.25;;
46042;SDS011;32533;-33.854;18.542;2022-09-16T16:06:00;6.30;;;1.42;;
46042;SDS011;32533;-33.854;18.542;2022-09-16T16:08:36;6.50;;;1.77;;
46042;SDS011;32533;-33.854;18.542;2022-09-16T16:11:08;5.65;;;1.63;;
46042;SDS011;32533;-33.854;18.542;2022-09-16T16:13:36;5.63;;;1.83;;
46042;SDS011;32533;-33.854;18.542;2022-09-16T16:16:06;4.03;;;1.38;;
46042;SDS011;32533;-33.854;18.542;2022-09-16T16:18:34;7.75;;;2.30;;
46042;SDS011;32533;-33.854;18.542;2022-09-16T16:21:05;4.45;;;1.52;;
46042;SDS011;32533;-33.854;18.542;2022-09-16T16:23:33;8.73;;;1.67;;
46042;SDS011;32533;-33.854;18.542;2022-09-16T16:26:02;6.72;;;2.42;;
46042;SDS011;32533;-33.854;18.542;2022-09-16T16:28:32;5.18;;;1.50;;
46042;SDS011;32533;-33.854;18.542;2022-09-16T16:31:13;8.52;;;1.58;;
46042;SDS011;32533;-33.854;18.542;2022-09-16T16:33:42;7.90;;;1.88;;
46042;SDS011;32533;-33.854;18.542;2022-09-16T16:36:10;14.32;;;4.35;;
46042;SDS011;32533;-33.854;18.542;2022-09-16T16:38:41;3.20;;;1.50;;
46042;SDS011;32533;-33.854;18.542;2022-09-16T16:41:08;4.07;;;1.30;;
46042;SDS011;32533;-33.854;18.542;2022-09-16T16:43:36;5.63;;;2.95;;
46042;SDS011;32533;-33.854;18.542;2022-09-16T16:46:04;6.03;;;1.60;;
46042;SDS011;32533;-33.854;18.542;2022-09-16T16:48:30;5.32;;;1.58;;
46042;SDS011;32533;-33.854;18.542;2022-09-16T16:51:04;1.98;;;1.30;;
46042;SDS011;32533;-33.854;18.542;2022-09-16T16:53:32;4.55;;;1.13;;
46042;SDS011;32533;-33.854;18.542;2022-09-16T16:56:02;6.50;;;2.45;;
46042;SDS011;32533;-33.854;18.542;2022-09-16T16:58:37;4.95;;;1.42;;
46042;SDS011;32533;-33.854;18.542;2022-09-16T17:01:16;3.20;;;1.17;;
46042;SDS011;32533;-33.854;18.542;2022-09-16T17:03:44;4.65;;;1.83;;
46042;SDS011;32533;-33.854;18.542;2022-09-16T17:06:14;4.32;;;1.38;;
46042;SDS011;32533;-33.854;18.542;2022-09-16T17:08:41;10.10;;;4.85;;
46042;SDS011;32533;-33.854;18.542;2022-09-16T17:13:39;7.05;;;3.08;;
46042;SDS011;32533;-33.854;18.542;2022-09-16T17:16:08;6.50;;;2.70;;
46042;SDS011;32533;-33.854;18.542;2022-09-16T17:18:36;6.25;;;1.90;;
46042;SDS011;32533;-33.854;18.542;2022-09-16T17:21:07;3.67;;;1.80;;
46042;SDS011;32533;-33.854;18.542;2022-09-16T17:23:35;9.25;;;2.42;;
46042;SDS011;32533;-33.854;18.542;2022-09-16T17:26:03;7.20;;;2.00;;
46042;SDS011;32533;-33.854;18.542;2022-09-16T17:28:30;5.40;;;1.88;;
46042;SDS011;32533;-33.854;18.542;2022-09-16T17:30:57;6.47;;;2.00;;
46042;SDS011;32533;-33.854;18.542;2022-09-16T17:33:23;7.28;;;1.35;;
46042;SDS011;32533;-33.854;18.542;2022-09-16T17:36:03;3.80;;;1.27;;
46042;SDS011;32533;-33.854;18.542;2022-09-16T17:38:31;5.97;;;1.55;;
46042;SDS011;32533;-33.854;18.542;2022-09-16T17:41:02;8.50;;;2.53;;
46042;SDS011;32533;-33.854;18.542;2022-09-16T17:43:33;4.50;;;1.45;;
46042;SDS011;32533;-33.854;18.542;2022-09-16T17:46:01;5.30;;;1.42;;
46042;SDS011;32533;-33.854;18.542;2022-09-16T17:48:29;4.72;;;1.80;;
46042;SDS011;32533;-33.854;18.542;2022-09-16T17:50:57;5.15;;;1.60;;
46042;SDS011;32533;-33.854;18.542;2022-09-16T17:53:27;10.05;;;1.98;;
46042;SDS011;32533;-33.854;18.542;2022-09-16T17:56:13;4.68;;;1.98;;
46042;SDS011;32533;-33.854;18.542;2022-09-16T17:58:44;6.53;;;1.80;;
46042;SDS011;32533;-33.854;18.542;2022-09-16T18:01:15;3.80;;;1.65;;
46042;SDS011;32533;-33.854;18.542;2022-09-16T20:16:38;6.40;;;3.28;;
46042;SDS011;32533;-33.854;18.542;2022-09-16T20:19:06;10.80;;;4.10;;
46042;SDS011;32533;-33.854;18.542;2022-09-16T20:21:34;8.48;;;3.15;;
46042;SDS011;32533;-33.854;18.542;2022-09-16T20:24:02;8.10;;;2.90;;
46042;SDS011;32533;-33.854;18.542;2022-09-16T20:26:33;12.35;;;4.07;;
46042;SDS011;32533;-33.854;18.542;2022-09-16T20:29:00;5.40;;;3.78;;
46042;SDS011;32533;-33.854;18.542;2022-09-16T20:31:29;7.40;;;3.92;;
46042;SDS011;32533;-33.854;18.542;2022-09-16T20:33:57;9.75;;;5.18;;
46042;SDS011;32533;-33.854;18.542;2022-09-16T20:36:24;11.35;;;5.25;;
46042;SDS011;32533;-33.854;18.542;2022-09-16T20:38:52;25.35;;;6.07;;
46042;SDS011;32533;-33.854;18.542;2022-09-16T20:41:19;13.45;;;4.28;;
46042;SDS011;32533;-33.854;18.542;2022-09-16T20:43:50;18.20;;;4.45;;
46042;SDS011;32533;-33.854;18.542;2022-09-16T20:48:52;10.13;;;3.15;;
46042;SDS011;32533;-33.854;18.542;2022-09-16T20:51:21;6.80;;;2.88;;
46042;SDS011;32533;-33.854;18.542;2022-09-16T20:53:50;9.80;;;3.03;;
46042;SDS011;32533;-33.854;18.542;2022-09-16T20:56:19;12.63;;;3.00;;
46042;SDS011;32533;-33.854;18.542;2022-09-16T20:58:46;14.15;;;2.83;;
46042;SDS011;32533;-33.854;18.542;2022-09-16T21:01:14;6.95;;;2.92;;
46042;SDS011;32533;-33.854;18.542;2022-09-16T21:03:52;13.50;;;3.58;;
46042;SDS011;32533;-33.854;18.542;2022-09-16T21:06:20;13.07;;;4.88;;
46042;SDS011;32533;-33.854;18.542;2022-09-16T21:08:48;10.05;;;3.60;;
46042;SDS011;32533;-33.854;18.542;2022-09-16T21:11:22;8.27;;;3.00;;
46042;SDS011;32533;-33.854;18.542;2022-09-16T21:13:52;10.20;;;3.63;;
46042;SDS011;32533;-33.854;18.542;2022-09-16T21:16:24;10.48;;;5.50;;
46042;SDS011;32533;-33.854;18.542;2022-09-16T21:18:54;9.07;;;3.22;;
46042;SDS011;32533;-33.854;18.542;2022-09-16T21:21:22;13.93;;;3.92;;
46042;SDS011;32533;-33.854;18.542;2022-09-16T21:23:50;19.08;;;3.70;;
46042;SDS011;32533;-33.854;18.542;2022-09-16T21:26:20;14.10;;;2.72;;
46042;SDS011;32533;-33.854;18.542;2022-09-16T21:28:54;13.88;;;3.72;;
46042;SDS011;32533;-33.854;18.542;2022-09-16T21:31:21;16.25;;;3.88;;
46042;SDS011;32533;-33.854;18.542;2022-09-16T21:33:49;18.85;;;3.70;;
46042;SDS011;32533;-33.854;18.542;2022-09-16T21:36:19;7.38;;;2.17;;
46042;SDS011;32533;-33.854;18.542;2022-09-16T21:38:46;12.32;;;2.58;;
46042;SDS011;32533;-33.854;18.542;2022-09-16T21:41:14;8.93;;;2.63;;
46042;SDS011;32533;-33.854;18.542;2022-09-16T21:43:43;7.32;;;2.50;;
46042;SDS011;32533;-33.854;18.542;2022-09-16T21:46:13;6.95;;;1.85;;
46042;SDS011;32533;-33.854;18.542;2022-09-16T21:48:41;6.43;;;2.75;;
46042;SDS011;32533;-33.854;18.542;2022-09-16T21:51:09;9.00;;;3.58;;
46042;SDS011;32533;-33.854;18.542;2022-09-16T21:53:37;9.40;;;3.45;;
46042;SDS011;32533;-33.854;18.542;2022-09-16T21:56:12;12.15;;;3.47;;
46042;SDS011;32533;-33.854;18.542;2022-09-16T21:58:40;11.13;;;2.90;;
46042;SDS011;32533;-33.854;18.542;2022-09-16T22:01:13;10.70;;;2.67;;
46042;SDS011;32533;-33.854;18.542;2022-09-16T22:03:42;5.72;;;2.55;;
46042;SDS011;32533;-33.854;18.542;2022-09-16T22:06:11;10.00;;;2.88;;
46042;SDS011;32533;-33.854;18.542;2022-09-16T22:08:41;12.07;;;3.33;;
46042;SDS011;32533;-33.854;18.542;2022-09-16T22:11:09;12.95;;;3.05;;
46042;SDS011;32533;-33.854;18.542;2022-09-16T22:13:38;17.30;;;4.40;;
46042;SDS011;32533;-33.854;18.542;2022-09-16T22:16:05;17.75;;;4.50;;
46042;SDS011;32533;-33.854;18.542;2022-09-16T22:18:33;14.65;;;4.90;;
46042;SDS011;32533;-33.854;18.542;2022-09-16T22:21:04;14.43;;;4.53;;
46042;SDS011;32533;-33.854;18.542;2022-09-16T22:23:40;17.63;;;4.45;;
46042;SDS011;32533;-33.854;18.542;2022-09-16T22:26:07;11.50;;;4.80;;
46042;SDS011;32533;-33.854;18.542;2022-09-16T22:28:38;11.77;;;3.40;;
46042;SDS011;32533;-33.854;18.542;2022-09-16T22:31:13;15.70;;;4.32;;
46042;SDS011;32533;-33.854;18.542;2022-09-16T22:33:41;11.27;;;4.32;;
46042;SDS011;32533;-33.854;18.542;2022-09-16T22:36:09;13.38;;;3.28;;
46042;SDS011;32533;-33.854;18.542;2022-09-16T22:38:37;17.17;;;3.50;;
46042;SDS011;32533;-33.854;18.542;2022-09-16T22:41:05;9.57;;;3.42;;
46042;SDS011;32533;-33.854;18.542;2022-09-16T22:43:36;7.88;;;2.42;;
46042;SDS011;32533;-33.854;18.542;2022-09-16T22:46:07;18.92;;;3.35;;
46042;SDS011;32533;-33.854;18.542;2022-09-16T22:48:39;10.57;;;2.58;;
46042;SDS011;32533;-33.854;18.542;2022-09-16T22:51:07;14.35;;;4.18;;
46042;SDS011;32533;-33.854;18.542;2022-09-16T22:53:36;12.88;;;3.95;;
46042;SDS011;32533;-33.854;18.542;2022-09-16T22:56:04;11.68;;;3.70;;
46042;SDS011;32533;-33.854;18.542;2022-09-16T22:58:31;10.93;;;3.92;;
46042;SDS011;32533;-33.854;18.542;2022-09-16T23:03:35;17.95;;;4.15;;
46042;SDS011;32533;-33.854;18.542;2022-09-16T23:06:04;9.38;;;3.45;;
46042;SDS011;32533;-33.854;18.542;2022-09-16T23:08:36;10.68;;;2.42;;
46042;SDS011;32533;-33.854;18.542;2022-09-16T23:11:08;10.95;;;3.20;;
46042;SDS011;32533;-33.854;18.542;2022-09-16T23:13:39;11.55;;;2.88;;
46042;SDS011;32533;-33.854;18.542;2022-09-16T23:16:42;6.57;;;3.20;;
46042;SDS011;32533;-33.854;18.542;2022-09-16T23:19:03;13.25;;;3.13;;
46042;SDS011;32533;-33.854;18.542;2022-09-16T23:21:32;13.18;;;3.53;;
46042;SDS011;32533;-33.854;18.542;2022-09-16T23:23:59;9.77;;;3.70;;
46042;SDS011;32533;-33.854;18.542;2022-09-16T23:26:28;8.50;;;3.08;;
46042;SDS011;32533;-33.854;18.542;2022-09-16T23:28:57;9.57;;;3.80;;
46042;SDS011;32533;-33.854;18.542;2022-09-16T23:31:29;10.60;;;2.92;;
46042;SDS011;32533;-33.854;18.542;2022-09-16T23:33:57;14.20;;;5.28;;
46042;SDS011;32533;-33.854;18.542;2022-09-16T23:36:24;15.27;;;4.60;;
46042;SDS011;32533;-33.854;18.542;2022-09-16T23:38:52;13.10;;;4.25;;
46042;SDS011;32533;-33.854;18.542;2022-09-16T23:41:23;8.35;;;3.88;;
46042;SDS011;32533;-33.854;18.542;2022-09-16T23:43:53;12.30;;;3.65;;
46042;SDS011;32533;-33.854;18.542;2022-09-16T23:46:21;9.32;;;3.47;;
46042;SDS011;32533;-33.854;18.542;2022-09-16T23:48:49;15.13;;;5.20;;
46042;SDS011;32533;-33.854;18.542;2022-09-16T23:51:17;10.60;;;3.92;;
46042;SDS011;32533;-33.854;18.542;2022-09-16T23:53:45;8.02;;;2.38;;
46042;SDS011;32533;-33.854;18.542;2022-09-16T23:56:13;11.18;;;2.55;;
46042;SDS011;32533;-33.854;18.542;2022-09-16T23:58:41;14.23;;;2.72;;
